sensor_id;sensor_type;location;lat;lon;timestamp;temperature;humidity
14252;DHT22;7210;51.502;10.722;2024-03-29T00:00:39;5.30;99.90
14252;DHT22;7210;51.502;10.722;2024-03-29T00:03:06;5.30;99.90
14252;DHT22;7210;51.502;10.722;2024-03-29T00:05:33;5.30;99.90
14252;DHT22;7210;51.502;10.722;2024-03-29T00:08:00;5.30;99.90
14252;DHT22;7210;51.502;10.722;2024-03-29T00:10:26;5.20;99.90
14252;DHT22;7210;51.502;10.722;2024-03-29T00:12:52;5.20;99.90
14252;DHT22;7210;51.502;10.722;2024-03-29T00:15:18;5.20;99.90
14252;DHT22;7210;51.502;10.722;2024-03-29T00:17:44;5.20;99.90
14252;DHT22;7210;51.502;10.722;2024-03-29T00:20:11;5.20;99.90
14252;DHT22;7210;51.502;10.722;2024-03-29T00:22:39;5.20;99.90
14252;DHT22;7210;51.502;10.722;2024-03-29T00:25:05;5.10;99.90
14252;DHT22;7210;51.502;10.722;2024-03-29T00:27:32;5.00;99.90
14252;DHT22;7210;51.502;10.722;2024-03-29T00:29:58;4.90;99.90
14252;DHT22;7210;51.502;10.722;2024-03-29T00:32:25;5.10;99.90
14252;DHT22;7210;51.502;10.722;2024-03-29T00:34:52;5.30;99.90
14252;DHT22;7210;51.502;10.722;2024-03-29T00:37:19;5.30;99.90
14252;DHT22;7210;51.502;10.722;2024-03-29T00:39:46;5.50;99.90
14252;DHT22;7210;51.502;10.722;2024-03-29T00:42:18;5.60;99.90
14252;DHT22;7210;51.502;10.722;2024-03-29T00:44:44;5.80;99.90
14252;DHT22;7210;51.502;10.722;2024-03-29T00:47:10;5.90;99.90
14252;DHT22;7210;51.502;10.722;2024-03-29T00:49:48;5.90;99.90
14252;DHT22;7210;51.502;10.722;2024-03-29T00:52:14;5.80;99.90
14252;DHT22;7210;51.502;10.722;2024-03-29T00:54:40;5.80;99.90
14252;DHT22;7210;51.502;10.722;2024-03-29T00:57:07;5.80;99.90
14252;DHT22;7210;51.502;10.722;2024-03-29T00:59:34;5.80;99.90
14252;DHT22;7210;51.502;10.722;2024-03-29T01:02:00;5.80;99.90
14252;DHT22;7210;51.502;10.722;2024-03-29T01:04:26;5.80;99.90
14252;DHT22;7210;51.502;10.722;2024-03-29T01:06:52;5.70;99.90
14252;DHT22;7210;51.502;10.722;2024-03-29T01:09:18;5.70;99.90
14252;DHT22;7210;51.502;10.722;2024-03-29T01:11:44;5.70;99.90
14252;DHT22;7210;51.502;10.722;2024-03-29T01:14:13;5.70;99.90
14252;DHT22;7210;51.502;10.722;2024-03-29T01:16:48;5.80;99.90
14252;DHT22;7210;51.502;10.722;2024-03-29T01:19:14;5.90;99.90
14252;DHT22;7210;51.502;10.722;2024-03-29T01:21:40;5.90;99.90
14252;DHT22;7210;51.502;10.722;2024-03-29T01:24:06;6.00;99.90
14252;DHT22;7210;51.502;10.722;2024-03-29T01:26:32;6.00;99.90
14252;DHT22;7210;51.502;10.722;2024-03-29T01:29:00;6.00;99.90
14252;DHT22;7210;51.502;10.722;2024-03-29T01:31:27;5.90;99.90
14252;DHT22;7210;51.502;10.722;2024-03-29T01:33:53;5.80;99.90
14252;DHT22;7210;51.502;10.722;2024-03-29T01:36:19;5.80;99.90
14252;DHT22;7210;51.502;10.722;2024-03-29T01:38:45;5.70;99.90
14252;DHT22;7210;51.502;10.722;2024-03-29T01:41:12;5.60;99.90
14252;DHT22;7210;51.502;10.722;2024-03-29T01:43:38;5.60;99.90
14252;DHT22;7210;51.502;10.722;2024-03-29T01:46:06;5.50;99.90
14252;DHT22;7210;51.502;10.722;2024-03-29T01:48:37;5.40;99.90
14252;DHT22;7210;51.502;10.722;2024-03-29T01:51:04;5.30;99.90
14252;DHT22;7210;51.502;10.722;2024-03-29T01:53:31;5.10;99.90
14252;DHT22;7210;51.502;10.722;2024-03-29T01:55:59;5.00;99.90
14252;DHT22;7210;51.502;10.722;2024-03-29T01:58:28;5.00;99.90
14252;DHT22;7210;51.502;10.722;2024-03-29T02:00:57;4.90;99.90
14252;DHT22;7210;51.502;10.722;2024-03-29T02:03:26;4.80;99.90
14252;DHT22;7210;51.502;10.722;2024-03-29T02:05:56;4.80;99.90
14252;DHT22;7210;51.502;10.722;2024-03-29T02:08:25;4.70;99.90
14252;DHT22;7210;51.502;10.722;2024-03-29T02:10:52;4.70;99.90
14252;DHT22;7210;51.502;10.722;2024-03-29T02:13:24;4.50;99.90
14252;DHT22;7210;51.502;10.722;2024-03-29T02:15:50;4.50;99.90
14252;DHT22;7210;51.502;10.722;2024-03-29T02:18:18;4.30;99.90
14252;DHT22;7210;51.502;10.722;2024-03-29T02:20:45;4.20;99.90
14252;DHT22;7210;51.502;10.722;2024-03-29T02:23:15;4.20;99.90
14252;DHT22;7210;51.502;10.722;2024-03-29T02:25:47;4.10;99.90
14252;DHT22;7210;51.502;10.722;2024-03-29T02:28:14;4.10;99.90
14252;DHT22;7210;51.502;10.722;2024-03-29T02:30:43;4.00;99.90
14252;DHT22;7210;51.502;10.722;2024-03-29T02:33:10;4.00;99.90
14252;DHT22;7210;51.502;10.722;2024-03-29T02:35:48;4.00;99.90
14252;DHT22;7210;51.502;10.722;2024-03-29T02:38:18;4.10;99.90
14252;DHT22;7210;51.502;10.722;2024-03-29T02:40:47;4.00;99.90
14252;DHT22;7210;51.502;10.722;2024-03-29T02:43:14;4.10;99.90
14252;DHT22;7210;51.502;10.722;2024-03-29T02:45:41;4.00;99.90
14252;DHT22;7210;51.502;10.722;2024-03-29T02:48:08;4.10;99.90
14252;DHT22;7210;51.502;10.722;2024-03-29T02:50:35;4.00;99.90
14252;DHT22;7210;51.502;10.722;2024-03-29T02:53:01;4.10;99.90
14252;DHT22;7210;51.502;10.722;2024-03-29T02:55:28;4.20;99.90
14252;DHT22;7210;51.502;10.722;2024-03-29T02:57:56;4.20;99.90
14252;DHT22;7210;51.502;10.722;2024-03-29T03:00:23;4.30;99.90
14252;DHT22;7210;51.502;10.722;2024-03-29T03:02:49;4.30;99.90
14252;DHT22;7210;51.502;10.722;2024-03-29T03:05:16;4.30;99.90
14252;DHT22;7210;51.502;10.722;2024-03-29T03:07:48;4.20;99.90
14252;DHT22;7210;51.502;10.722;2024-03-29T03:10:32;4.20;99.90
14252;DHT22;7210;51.502;10.722;2024-03-29T03:13:18;4.30;99.90
14252;DHT22;7210;51.502;10.722;2024-03-29T03:15:45;4.40;99.90
14252;DHT22;7210;51.502;10.722;2024-03-29T03:18:11;4.40;99.90
14252;DHT22;7210;51.502;10.722;2024-03-29T03:20:38;4.30;99.90
14252;DHT22;7210;51.502;10.722;2024-03-29T03:23:05;4.40;99.90
14252;DHT22;7210;51.502;10.722;2024-03-29T03:25:32;4.30;99.90
14252;DHT22;7210;51.502;10.722;2024-03-29T03:28:00;4.30;99.90
14252;DHT22;7210;51.502;10.722;2024-03-29T03:30:28;4.30;99.90
14252;DHT22;7210;51.502;10.722;2024-03-29T03:32:54;4.30;99.90
14252;DHT22;7210;51.502;10.722;2024-03-29T03:35:24;4.30;99.90
14252;DHT22;7210;51.502;10.722;2024-03-29T03:37:50;4.30;99.90
14252;DHT22;7210;51.502;10.722;2024-03-29T03:40:17;4.30;99.90
14252;DHT22;7210;51.502;10.722;2024-03-29T03:42:43;4.20;99.90
14252;DHT22;7210;51.502;10.722;2024-03-29T03:45:10;4.20;99.90
14252;DHT22;7210;51.502;10.722;2024-03-29T03:47:37;4.30;99.90
14252;DHT22;7210;51.502;10.722;2024-03-29T03:50:05;4.50;99.90
14252;DHT22;7210;51.502;10.722;2024-03-29T03:52:36;4.40;99.90
14252;DHT22;7210;51.502;10.722;2024-03-29T03:55:03;4.50;99.90
14252;DHT22;7210;51.502;10.722;2024-03-29T03:57:30;4.60;99.90
14252;DHT22;7210;51.502;10.722;2024-03-29T03:59:57;4.70;99.90
14252;DHT22;7210;51.502;10.722;2024-03-29T04:02:23;4.70;99.90
14252;DHT22;7210;51.502;10.722;2024-03-29T04:05:01;4.80;99.90
14252;DHT22;7210;51.502;10.722;2024-03-29T04:07:27;4.80;99.90
14252;DHT22;7210;51.502;10.722;2024-03-29T04:09:54;5.00;99.90
14252;DHT22;7210;51.502;10.722;2024-03-29T04:12:20;5.10;99.90
14252;DHT22;7210;51.502;10.722;2024-03-29T04:14:48;5.00;99.90
14252;DHT22;7210;51.502;10.722;2024-03-29T04:17:18;5.10;99.90
14252;DHT22;7210;51.502;10.722;2024-03-29T04:19:45;5.10;99.90
14252;DHT22;7210;51.502;10.722;2024-03-29T04:22:12;5.10;99.90
14252;DHT22;7210;51.502;10.722;2024-03-29T04:24:39;5.10;99.90
14252;DHT22;7210;51.502;10.722;2024-03-29T04:27:05;5.10;99.90
14252;DHT22;7210;51.502;10.722;2024-03-29T04:29:32;5.10;99.90
14252;DHT22;7210;51.502;10.722;2024-03-29T04:31:58;5.10;99.90
14252;DHT22;7210;51.502;10.722;2024-03-29T04:34:25;5.10;99.90
14252;DHT22;7210;51.502;10.722;2024-03-29T04:36:52;5.20;99.90
14252;DHT22;7210;51.502;10.722;2024-03-29T04:39:20;5.20;99.90
14252;DHT22;7210;51.502;10.722;2024-03-29T04:41:48;5.20;99.90
14252;DHT22;7210;51.502;10.722;2024-03-29T04:44:23;5.30;99.90
14252;DHT22;7210;51.502;10.722;2024-03-29T04:46:51;5.30;99.90
14252;DHT22;7210;51.502;10.722;2024-03-29T04:49:19;5.30;99.90
14252;DHT22;7210;51.502;10.722;2024-03-29T04:51:50;5.30;99.90
14252;DHT22;7210;51.502;10.722;2024-03-29T04:54:17;5.40;99.90
14252;DHT22;7210;51.502;10.722;2024-03-29T04:56:46;5.40;99.90
14252;DHT22;7210;51.502;10.722;2024-03-29T04:59:13;5.50;99.90
14252;DHT22;7210;51.502;10.722;2024-03-29T05:01:42;5.40;99.90
14252;DHT22;7210;51.502;10.722;2024-03-29T05:04:10;5.40;99.90
14252;DHT22;7210;51.502;10.722;2024-03-29T05:06:38;5.30;99.90
14252;DHT22;7210;51.502;10.722;2024-03-29T05:09:05;5.30;99.90
14252;DHT22;7210;51.502;10.722;2024-03-29T05:11:32;5.30;99.90
14252;DHT22;7210;51.502;10.722;2024-03-29T05:14:01;5.30;99.90
14252;DHT22;7210;51.502;10.722;2024-03-29T05:16:29;5.40;99.90
14252;DHT22;7210;51.502;10.722;2024-03-29T05:18:57;5.30;99.90
14252;DHT22;7210;51.502;10.722;2024-03-29T05:21:24;5.40;99.90
14252;DHT22;7210;51.502;10.722;2024-03-29T05:23:54;5.40;99.90
14252;DHT22;7210;51.502;10.722;2024-03-29T05:26:21;5.40;99.90
14252;DHT22;7210;51.502;10.722;2024-03-29T05:28:48;5.40;99.90
14252;DHT22;7210;51.502;10.722;2024-03-29T05:31:17;5.40;99.90
14252;DHT22;7210;51.502;10.722;2024-03-29T05:33:54;5.40;99.90
14252;DHT22;7210;51.502;10.722;2024-03-29T05:36:21;5.50;99.90
14252;DHT22;7210;51.502;10.722;2024-03-29T05:38:49;5.50;99.90
14252;DHT22;7210;51.502;10.722;2024-03-29T05:41:18;5.50;99.90
14252;DHT22;7210;51.502;10.722;2024-03-29T05:43:54;5.50;99.90
14252;DHT22;7210;51.502;10.722;2024-03-29T05:46:22;5.50;99.90
14252;DHT22;7210;51.502;10.722;2024-03-29T05:48:49;5.50;99.90
14252;DHT22;7210;51.502;10.722;2024-03-29T05:51:16;5.60;99.90
14252;DHT22;7210;51.502;10.722;2024-03-29T05:53:43;5.50;99.90
14252;DHT22;7210;51.502;10.722;2024-03-29T05:56:10;5.60;99.90
14252;DHT22;7210;51.502;10.722;2024-03-29T05:58:38;5.60;99.90
14252;DHT22;7210;51.502;10.722;2024-03-29T06:01:05;5.60;99.90
14252;DHT22;7210;51.502;10.722;2024-03-29T06:03:33;5.70;99.90
14252;DHT22;7210;51.502;10.722;2024-03-29T06:06:00;5.70;99.90
14252;DHT22;7210;51.502;10.722;2024-03-29T06:08:27;5.70;99.90
14252;DHT22;7210;51.502;10.722;2024-03-29T06:10:54;5.70;99.90
14252;DHT22;7210;51.502;10.722;2024-03-29T06:13:22;5.70;99.90
14252;DHT22;7210;51.502;10.722;2024-03-29T06:16:16;5.70;99.90
14252;DHT22;7210;51.502;10.722;2024-03-29T06:19:02;5.70;99.90
14252;DHT22;7210;51.502;10.722;2024-03-29T06:21:29;5.80;99.90
14252;DHT22;7210;51.502;10.722;2024-03-29T06:24:04;5.70;99.90
14252;DHT22;7210;51.502;10.722;2024-03-29T06:26:32;5.80;99.90
14252;DHT22;7210;51.502;10.722;2024-03-29T06:28:59;5.90;99.90
14252;DHT22;7210;51.502;10.722;2024-03-29T06:31:27;5.90;99.90
14252;DHT22;7210;51.502;10.722;2024-03-29T06:33:54;6.00;99.90
14252;DHT22;7210;51.502;10.722;2024-03-29T06:36:23;6.00;99.90
14252;DHT22;7210;51.502;10.722;2024-03-29T06:38:51;6.00;99.90
14252;DHT22;7210;51.502;10.722;2024-03-29T06:41:18;6.00;99.90
14252;DHT22;7210;51.502;10.722;2024-03-29T06:43:45;6.00;99.90
14252;DHT22;7210;51.502;10.722;2024-03-29T06:46:13;6.00;99.90
14252;DHT22;7210;51.502;10.722;2024-03-29T06:48:41;6.00;99.90
14252;DHT22;7210;51.502;10.722;2024-03-29T06:51:08;6.10;99.90
14252;DHT22;7210;51.502;10.722;2024-03-29T06:53:36;6.20;99.90
14252;DHT22;7210;51.502;10.722;2024-03-29T06:56:04;6.20;99.90
14252;DHT22;7210;51.502;10.722;2024-03-29T06:58:32;6.20;99.90
14252;DHT22;7210;51.502;10.722;2024-03-29T07:00:59;6.20;99.90
14252;DHT22;7210;51.502;10.722;2024-03-29T07:03:26;6.30;99.90
14252;DHT22;7210;51.502;10.722;2024-03-29T07:05:53;6.30;99.90
14252;DHT22;7210;51.502;10.722;2024-03-29T07:08:20;6.40;99.90
14252;DHT22;7210;51.502;10.722;2024-03-29T07:10:57;6.50;99.90
14252;DHT22;7210;51.502;10.722;2024-03-29T07:13:25;6.60;99.90
14252;DHT22;7210;51.502;10.722;2024-03-29T07:15:52;6.60;99.90
14252;DHT22;7210;51.502;10.722;2024-03-29T07:18:20;6.80;99.90
14252;DHT22;7210;51.502;10.722;2024-03-29T07:20:47;6.90;99.90
14252;DHT22;7210;51.502;10.722;2024-03-29T07:23:18;6.90;99.90
14252;DHT22;7210;51.502;10.722;2024-03-29T07:25:58;7.10;99.90
14252;DHT22;7210;51.502;10.722;2024-03-29T07:28:27;7.00;99.90
14252;DHT22;7210;51.502;10.722;2024-03-29T07:30:54;7.10;99.90
14252;DHT22;7210;51.502;10.722;2024-03-29T07:33:23;7.10;99.90
14252;DHT22;7210;51.502;10.722;2024-03-29T07:35:52;7.20;99.90
14252;DHT22;7210;51.502;10.722;2024-03-29T07:38:19;7.40;99.90
14252;DHT22;7210;51.502;10.722;2024-03-29T07:40:47;7.60;99.90
14252;DHT22;7210;51.502;10.722;2024-03-29T07:43:20;7.60;99.90
14252;DHT22;7210;51.502;10.722;2024-03-29T07:45:48;7.60;99.90
14252;DHT22;7210;51.502;10.722;2024-03-29T07:48:17;7.70;99.90
14252;DHT22;7210;51.502;10.722;2024-03-29T07:50:48;7.70;99.90
14252;DHT22;7210;51.502;10.722;2024-03-29T07:53:15;7.70;99.90
14252;DHT22;7210;51.502;10.722;2024-03-29T07:55:42;7.70;99.90
14252;DHT22;7210;51.502;10.722;2024-03-29T07:58:10;7.70;99.90
14252;DHT22;7210;51.502;10.722;2024-03-29T08:00:40;7.70;99.90
14252;DHT22;7210;51.502;10.722;2024-03-29T08:03:08;7.60;99.90
14252;DHT22;7210;51.502;10.722;2024-03-29T08:05:35;7.60;99.90
14252;DHT22;7210;51.502;10.722;2024-03-29T08:08:03;7.50;99.90
14252;DHT22;7210;51.502;10.722;2024-03-29T08:10:31;7.50;99.90
14252;DHT22;7210;51.502;10.722;2024-03-29T08:12:58;7.60;99.90
14252;DHT22;7210;51.502;10.722;2024-03-29T08:15:26;7.60;99.90
14252;DHT22;7210;51.502;10.722;2024-03-29T08:17:55;7.70;99.90
14252;DHT22;7210;51.502;10.722;2024-03-29T08:20:22;7.80;99.90
14252;DHT22;7210;51.502;10.722;2024-03-29T08:22:55;7.90;99.90
14252;DHT22;7210;51.502;10.722;2024-03-29T08:25:24;7.90;99.90
14252;DHT22;7210;51.502;10.722;2024-03-29T08:27:53;7.90;99.90
14252;DHT22;7210;51.502;10.722;2024-03-29T08:30:24;7.90;99.90
14252;DHT22;7210;51.502;10.722;2024-03-29T08:32:51;7.90;99.90
14252;DHT22;7210;51.502;10.722;2024-03-29T08:35:20;7.90;99.90
14252;DHT22;7210;51.502;10.722;2024-03-29T08:37:47;7.90;99.90
14252;DHT22;7210;51.502;10.722;2024-03-29T08:40:18;7.90;99.90
14252;DHT22;7210;51.502;10.722;2024-03-29T08:42:45;7.90;99.90
14252;DHT22;7210;51.502;10.722;2024-03-29T08:45:12;8.00;99.90
14252;DHT22;7210;51.502;10.722;2024-03-29T08:47:39;8.00;99.90
14252;DHT22;7210;51.502;10.722;2024-03-29T08:50:07;8.00;99.90
14252;DHT22;7210;51.502;10.722;2024-03-29T08:52:38;8.10;99.90
14252;DHT22;7210;51.502;10.722;2024-03-29T08:55:06;8.10;99.90
14252;DHT22;7210;51.502;10.722;2024-03-29T08:57:33;8.10;99.90
14252;DHT22;7210;51.502;10.722;2024-03-29T09:00:01;8.20;99.90
14252;DHT22;7210;51.502;10.722;2024-03-29T09:02:28;8.30;99.90
14252;DHT22;7210;51.502;10.722;2024-03-29T09:04:55;8.30;99.90
14252;DHT22;7210;51.502;10.722;2024-03-29T09:07:24;8.30;99.90
14252;DHT22;7210;51.502;10.722;2024-03-29T09:09:52;8.40;99.90
14252;DHT22;7210;51.502;10.722;2024-03-29T09:12:20;8.40;99.90
14252;DHT22;7210;51.502;10.722;2024-03-29T09:14:48;8.50;99.90
14252;DHT22;7210;51.502;10.722;2024-03-29T09:17:16;8.60;99.90
14252;DHT22;7210;51.502;10.722;2024-03-29T09:19:43;8.80;99.90
14252;DHT22;7210;51.502;10.722;2024-03-29T09:22:12;8.90;99.90
14252;DHT22;7210;51.502;10.722;2024-03-29T09:24:39;9.00;99.90
14252;DHT22;7210;51.502;10.722;2024-03-29T09:27:07;9.20;99.90
14252;DHT22;7210;51.502;10.722;2024-03-29T09:29:34;9.30;99.90
14252;DHT22;7210;51.502;10.722;2024-03-29T09:32:02;9.40;99.90
14252;DHT22;7210;51.502;10.722;2024-03-29T09:34:29;9.40;99.90
14252;DHT22;7210;51.502;10.722;2024-03-29T09:36:56;9.30;99.90
14252;DHT22;7210;51.502;10.722;2024-03-29T09:39:24;9.30;99.90
14252;DHT22;7210;51.502;10.722;2024-03-29T09:41:53;9.20;99.90
14252;DHT22;7210;51.502;10.722;2024-03-29T09:44:33;9.20;99.90
14252;DHT22;7210;51.502;10.722;2024-03-29T09:47:03;9.20;99.90
14252;DHT22;7210;51.502;10.722;2024-03-29T09:49:31;9.20;99.90
14252;DHT22;7210;51.502;10.722;2024-03-29T09:51:59;9.20;99.90
14252;DHT22;7210;51.502;10.722;2024-03-29T09:54:30;9.20;99.90
14252;DHT22;7210;51.502;10.722;2024-03-29T09:56:59;9.20;99.90
14252;DHT22;7210;51.502;10.722;2024-03-29T09:59:31;9.20;99.90
14252;DHT22;7210;51.502;10.722;2024-03-29T10:02:00;9.30;99.90
14252;DHT22;7210;51.502;10.722;2024-03-29T10:04:38;9.30;99.90
14252;DHT22;7210;51.502;10.722;2024-03-29T10:07:12;9.40;99.90
14252;DHT22;7210;51.502;10.722;2024-03-29T10:09:43;9.50;99.90
14252;DHT22;7210;51.502;10.722;2024-03-29T10:12:12;9.60;99.90
14252;DHT22;7210;51.502;10.722;2024-03-29T10:14:47;9.80;99.90
14252;DHT22;7210;51.502;10.722;2024-03-29T10:17:17;9.80;99.90
14252;DHT22;7210;51.502;10.722;2024-03-29T10:19:46;10.00;99.90
14252;DHT22;7210;51.502;10.722;2024-03-29T10:22:13;10.10;99.90
14252;DHT22;7210;51.502;10.722;2024-03-29T10:24:40;10.30;99.90
14252;DHT22;7210;51.502;10.722;2024-03-29T10:27:07;10.40;99.90
14252;DHT22;7210;51.502;10.722;2024-03-29T10:29:35;10.50;99.90
14252;DHT22;7210;51.502;10.722;2024-03-29T10:32:03;10.60;99.90
14252;DHT22;7210;51.502;10.722;2024-03-29T10:34:31;10.60;99.90
14252;DHT22;7210;51.502;10.722;2024-03-29T10:37:07;10.60;99.90
14252;DHT22;7210;51.502;10.722;2024-03-29T10:39:42;10.60;99.90
14252;DHT22;7210;51.502;10.722;2024-03-29T10:42:11;10.60;99.90
14252;DHT22;7210;51.502;10.722;2024-03-29T10:44:39;10.60;99.90
14252;DHT22;7210;51.502;10.722;2024-03-29T10:47:09;10.70;99.90
14252;DHT22;7210;51.502;10.722;2024-03-29T10:49:45;10.70;99.90
14252;DHT22;7210;51.502;10.722;2024-03-29T10:52:17;10.80;99.90
14252;DHT22;7210;51.502;10.722;2024-03-29T10:54:44;10.80;99.90
14252;DHT22;7210;51.502;10.722;2024-03-29T10:57:16;10.90;99.90
14252;DHT22;7210;51.502;10.722;2024-03-29T10:59:54;10.80;99.90
14252;DHT22;7210;51.502;10.722;2024-03-29T11:02:39;10.80;99.90
14252;DHT22;7210;51.502;10.722;2024-03-29T11:05:15;10.80;99.90
14252;DHT22;7210;51.502;10.722;2024-03-29T11:07:49;10.90;99.90
14252;DHT22;7210;51.502;10.722;2024-03-29T11:10:23;11.00;99.90
14252;DHT22;7210;51.502;10.722;2024-03-29T11:12:59;11.20;99.90
14252;DHT22;7210;51.502;10.722;2024-03-29T11:15:33;11.30;99.90
14252;DHT22;7210;51.502;10.722;2024-03-29T11:18:06;11.50;99.90
14252;DHT22;7210;51.502;10.722;2024-03-29T11:20:35;11.60;99.90
14252;DHT22;7210;51.502;10.722;2024-03-29T11:23:05;11.50;99.90
14252;DHT22;7210;51.502;10.722;2024-03-29T11:25:43;11.60;99.90
14252;DHT22;7210;51.502;10.722;2024-03-29T11:28:12;11.50;99.90
14252;DHT22;7210;51.502;10.722;2024-03-29T11:30:46;11.40;99.90
14252;DHT22;7210;51.502;10.722;2024-03-29T11:33:31;11.40;99.90
14252;DHT22;7210;51.502;10.722;2024-03-29T11:36:03;11.40;99.90
14252;DHT22;7210;51.502;10.722;2024-03-29T11:38:36;11.40;99.90
14252;DHT22;7210;51.502;10.722;2024-03-29T11:41:04;11.40;99.90
14252;DHT22;7210;51.502;10.722;2024-03-29T11:43:33;11.50;99.90
14252;DHT22;7210;51.502;10.722;2024-03-29T11:46:01;11.50;99.90
14252;DHT22;7210;51.502;10.722;2024-03-29T11:48:31;11.50;99.90
14252;DHT22;7210;51.502;10.722;2024-03-29T11:50:59;11.50;99.90
14252;DHT22;7210;51.502;10.722;2024-03-29T11:53:27;11.50;99.90
14252;DHT22;7210;51.502;10.722;2024-03-29T11:56:06;11.40;99.90
14252;DHT22;7210;51.502;10.722;2024-03-29T11:58:42;11.40;99.90
14252;DHT22;7210;51.502;10.722;2024-03-29T12:01:13;11.30;99.90
14252;DHT22;7210;51.502;10.722;2024-03-29T12:03:42;11.20;99.90
14252;DHT22;7210;51.502;10.722;2024-03-29T12:06:10;11.20;99.90
14252;DHT22;7210;51.502;10.722;2024-03-29T12:08:39;11.20;99.90
14252;DHT22;7210;51.502;10.722;2024-03-29T12:11:08;11.20;99.90
14252;DHT22;7210;51.502;10.722;2024-03-29T12:13:36;11.30;99.90
14252;DHT22;7210;51.502;10.722;2024-03-29T12:16:06;11.40;99.90
14252;DHT22;7210;51.502;10.722;2024-03-29T12:18:34;11.50;99.90
14252;DHT22;7210;51.502;10.722;2024-03-29T12:21:03;11.50;99.90
14252;DHT22;7210;51.502;10.722;2024-03-29T12:23:30;11.60;99.90
14252;DHT22;7210;51.502;10.722;2024-03-29T12:25:58;11.50;99.90
14252;DHT22;7210;51.502;10.722;2024-03-29T12:28:26;11.60;99.90
14252;DHT22;7210;51.502;10.722;2024-03-29T12:30:54;11.50;99.90
14252;DHT22;7210;51.502;10.722;2024-03-29T12:33:24;11.60;99.90
14252;DHT22;7210;51.502;10.722;2024-03-29T12:35:52;11.60;99.90
14252;DHT22;7210;51.502;10.722;2024-03-29T12:38:22;11.80;99.90
14252;DHT22;7210;51.502;10.722;2024-03-29T12:40:50;11.90;99.90
14252;DHT22;7210;51.502;10.722;2024-03-29T12:43:20;11.90;1.40
14252;DHT22;7210;51.502;10.722;2024-03-29T12:45:49;11.90;1.40
14252;DHT22;7210;51.502;10.722;2024-03-29T12:48:19;11.90;99.90
14252;DHT22;7210;51.502;10.722;2024-03-29T12:50:49;11.80;99.90
14252;DHT22;7210;51.502;10.722;2024-03-29T12:53:18;11.90;99.90
14252;DHT22;7210;51.502;10.722;2024-03-29T12:55:48;12.10;99.90
14252;DHT22;7210;51.502;10.722;2024-03-29T12:58:18;12.20;99.90
14252;DHT22;7210;51.502;10.722;2024-03-29T13:00:48;12.10;1.00
14252;DHT22;7210;51.502;10.722;2024-03-29T13:03:15;12.20;99.90
14252;DHT22;7210;51.502;10.722;2024-03-29T13:05:43;12.20;1.00
14252;DHT22;7210;51.502;10.722;2024-03-29T13:08:11;12.30;1.00
14252;DHT22;7210;51.502;10.722;2024-03-29T13:10:41;12.30;99.90
14252;DHT22;7210;51.502;10.722;2024-03-29T13:13:14;12.40;99.90
14252;DHT22;7210;51.502;10.722;2024-03-29T13:15:41;12.30;99.90
14252;DHT22;7210;51.502;10.722;2024-03-29T13:18:08;12.30;99.90
14252;DHT22;7210;51.502;10.722;2024-03-29T13:20:38;12.20;99.90
14252;DHT22;7210;51.502;10.722;2024-03-29T13:23:07;12.10;99.90
14252;DHT22;7210;51.502;10.722;2024-03-29T13:25:34;12.10;99.90
14252;DHT22;7210;51.502;10.722;2024-03-29T13:28:01;12.00;99.90
14252;DHT22;7210;51.502;10.722;2024-03-29T13:30:31;11.90;99.90
14252;DHT22;7210;51.502;10.722;2024-03-29T13:32:59;11.90;99.90
14252;DHT22;7210;51.502;10.722;2024-03-29T13:35:26;11.80;99.90
14252;DHT22;7210;51.502;10.722;2024-03-29T13:37:54;11.80;99.90
14252;DHT22;7210;51.502;10.722;2024-03-29T13:40:22;11.80;99.90
14252;DHT22;7210;51.502;10.722;2024-03-29T13:42:50;11.80;99.90
14252;DHT22;7210;51.502;10.722;2024-03-29T13:45:17;11.70;99.90
14252;DHT22;7210;51.502;10.722;2024-03-29T13:47:46;11.70;99.90
14252;DHT22;7210;51.502;10.722;2024-03-29T13:50:14;11.80;99.90
14252;DHT22;7210;51.502;10.722;2024-03-29T13:52:42;11.80;99.90
14252;DHT22;7210;51.502;10.722;2024-03-29T13:55:10;11.80;99.90
14252;DHT22;7210;51.502;10.722;2024-03-29T13:57:37;11.80;99.90
14252;DHT22;7210;51.502;10.722;2024-03-29T14:00:05;11.80;99.90
14252;DHT22;7210;51.502;10.722;2024-03-29T14:02:49;11.80;99.90
14252;DHT22;7210;51.502;10.722;2024-03-29T14:05:18;11.80;99.90
14252;DHT22;7210;51.502;10.722;2024-03-29T14:07:45;11.80;99.90
14252;DHT22;7210;51.502;10.722;2024-03-29T14:10:14;11.80;99.90
14252;DHT22;7210;51.502;10.722;2024-03-29T14:12:41;11.80;99.90
14252;DHT22;7210;51.502;10.722;2024-03-29T14:15:08;11.80;99.90
14252;DHT22;7210;51.502;10.722;2024-03-29T14:17:36;11.80;99.90
14252;DHT22;7210;51.502;10.722;2024-03-29T14:20:05;11.70;99.90
14252;DHT22;7210;51.502;10.722;2024-03-29T14:22:33;11.70;99.90
14252;DHT22;7210;51.502;10.722;2024-03-29T14:25:01;11.60;99.90
14252;DHT22;7210;51.502;10.722;2024-03-29T14:27:29;11.70;99.90
14252;DHT22;7210;51.502;10.722;2024-03-29T14:29:56;11.70;99.90
14252;DHT22;7210;51.502;10.722;2024-03-29T14:32:24;11.70;99.90
14252;DHT22;7210;51.502;10.722;2024-03-29T14:34:52;11.60;99.90
14252;DHT22;7210;51.502;10.722;2024-03-29T14:37:21;11.60;99.90
14252;DHT22;7210;51.502;10.722;2024-03-29T14:39:48;11.60;99.90
14252;DHT22;7210;51.502;10.722;2024-03-29T14:42:16;11.60;99.90
14252;DHT22;7210;51.502;10.722;2024-03-29T14:44:48;11.50;99.90
14252;DHT22;7210;51.502;10.722;2024-03-29T14:47:15;11.50;99.90
14252;DHT22;7210;51.502;10.722;2024-03-29T14:49:43;11.60;99.90
14252;DHT22;7210;51.502;10.722;2024-03-29T14:52:10;11.50;99.90
14252;DHT22;7210;51.502;10.722;2024-03-29T14:54:38;11.50;99.90
14252;DHT22;7210;51.502;10.722;2024-03-29T14:57:06;11.50;99.90
14252;DHT22;7210;51.502;10.722;2024-03-29T14:59:33;11.50;99.90
14252;DHT22;7210;51.502;10.722;2024-03-29T15:02:02;11.50;99.90
14252;DHT22;7210;51.502;10.722;2024-03-29T15:04:29;11.50;99.90
14252;DHT22;7210;51.502;10.722;2024-03-29T15:06:57;11.50;99.90
14252;DHT22;7210;51.502;10.722;2024-03-29T15:09:24;11.60;99.90
14252;DHT22;7210;51.502;10.722;2024-03-29T15:11:53;11.60;99.90
14252;DHT22;7210;51.502;10.722;2024-03-29T15:14:24;11.70;99.90
14252;DHT22;7210;51.502;10.722;2024-03-29T15:16:54;11.70;99.90
14252;DHT22;7210;51.502;10.722;2024-03-29T15:19:22;11.70;99.90
14252;DHT22;7210;51.502;10.722;2024-03-29T15:21:49;11.60;99.90
14252;DHT22;7210;51.502;10.722;2024-03-29T15:24:16;11.50;99.90
14252;DHT22;7210;51.502;10.722;2024-03-29T15:26:43;11.50;99.90
14252;DHT22;7210;51.502;10.722;2024-03-29T15:29:12;11.50;99.90
14252;DHT22;7210;51.502;10.722;2024-03-29T15:31:39;11.50;99.90
14252;DHT22;7210;51.502;10.722;2024-03-29T15:34:09;11.40;99.90
14252;DHT22;7210;51.502;10.722;2024-03-29T15:36:37;11.40;99.90
14252;DHT22;7210;51.502;10.722;2024-03-29T15:39:05;11.40;99.90
14252;DHT22;7210;51.502;10.722;2024-03-29T15:41:34;11.40;99.90
14252;DHT22;7210;51.502;10.722;2024-03-29T15:44:02;11.40;99.90
14252;DHT22;7210;51.502;10.722;2024-03-29T15:46:31;11.40;99.90
14252;DHT22;7210;51.502;10.722;2024-03-29T15:48:59;11.40;99.90